createdAt,value
2023-05-22T00:00:52.882Z,7.37
2023-05-22T00:05:58.918Z,6.00
2023-05-22T00:11:02.112Z,6.87
2023-05-22T00:16:07.264Z,6.57
2023-05-22T00:21:10.459Z,7.20
2023-05-22T00:26:17.061Z,6.27
2023-05-22T00:31:21.700Z,6.47
2023-05-22T00:36:24.817Z,6.77
2023-05-22T00:41:27.965Z,6.87
2023-05-22T00:46:34.235Z,6.80
2023-05-22T00:51:37.834Z,7.43
2023-05-22T00:56:42.719Z,7.17
2023-05-22T01:01:47.294Z,6.47
2023-05-22T01:06:50.523Z,7.20
2023-05-22T01:12:00.939Z,7.20
2023-05-22T01:17:22.680Z,7.47
2023-05-22T01:22:38.629Z,7.13
2023-05-22T01:28:03.707Z,7.53
2023-05-22T01:33:09.244Z,7.53
2023-05-22T01:38:12.974Z,7.43
2023-05-22T01:43:16.726Z,7.33
2023-05-22T01:48:21.296Z,7.17
2023-05-22T01:53:33.373Z,6.07
2023-05-22T01:58:44.000Z,7.90
2023-05-22T02:03:56.634Z,7.87
2023-05-22T02:09:02.042Z,6.10
2023-05-22T02:14:05.332Z,7.20
2023-05-22T02:19:09.911Z,6.97
2023-05-22T02:24:13.208Z,6.43
2023-05-22T02:29:16.368Z,6.33
2023-05-22T02:34:20.971Z,8.00
2023-05-22T02:39:24.091Z,10.33
2023-05-22T02:44:27.364Z,7.47
2023-05-22T02:49:31.887Z,7.00
2023-05-22T02:54:35.184Z,8.03
2023-05-22T02:59:38.831Z,6.30
2023-05-22T03:04:43.334Z,6.53
2023-05-22T03:09:46.432Z,7.70
2023-05-22T03:14:49.537Z,7.93
2023-05-22T03:19:54.222Z,7.70
2023-05-22T03:24:57.433Z,7.27
2023-05-22T03:30:00.629Z,6.87
2023-05-22T03:35:06.235Z,7.43
2023-05-22T03:40:10.409Z,6.90
2023-05-22T03:45:13.614Z,7.50
2023-05-22T03:50:18.295Z,6.77
2023-05-22T03:55:21.514Z,8.33
2023-05-22T04:00:26.782Z,7.30
2023-05-22T04:05:32.399Z,6.53
2023-05-22T04:10:37.276Z,7.50
2023-05-22T04:15:45.862Z,7.07
2023-05-22T04:20:51.940Z,6.87
2023-05-22T04:25:55.507Z,7.17
2023-05-22T04:30:58.771Z,6.67
2023-05-22T04:36:03.438Z,7.03
2023-05-22T04:41:08.621Z,6.17
2023-05-22T04:46:12.014Z,8.00
2023-05-22T04:51:16.636Z,8.77
2023-05-22T04:56:31.863Z,7.43
2023-05-22T05:01:39.433Z,8.00
2023-05-22T05:06:44.373Z,6.90
2023-05-22T05:11:47.603Z,8.70
2023-05-22T05:16:51.849Z,9.20
2023-05-22T05:21:56.418Z,9.30
2023-05-22T05:26:59.743Z,9.83
2023-05-22T05:32:04.066Z,9.47
2023-05-22T05:37:09.052Z,9.63
2023-05-22T05:42:12.375Z,8.73
2023-05-22T05:47:15.890Z,8.37
2023-05-22T05:52:21.065Z,9.20
2023-05-22T05:57:24.914Z,9.63
2023-05-22T06:02:28.254Z,9.10
2023-05-22T06:07:32.835Z,9.43
2023-05-22T06:12:36.445Z,9.73
2023-05-22T06:17:39.823Z,10.33
2023-05-22T06:22:44.460Z,8.77
2023-05-22T06:27:47.738Z,8.80
2023-05-22T06:32:52.439Z,8.37
2023-05-22T06:37:57.390Z,9.57
2023-05-22T06:43:00.628Z,8.83
2023-05-22T06:48:03.908Z,9.33
2023-05-22T06:53:08.677Z,10.00
2023-05-22T06:58:13.464Z,9.13
2023-05-22T07:03:16.723Z,9.33
2023-05-22T07:08:21.201Z,8.73
2023-05-22T07:13:24.938Z,9.20
2023-05-22T07:18:28.126Z,10.40
2023-05-22T07:23:32.641Z,9.53
2023-05-22T07:28:35.862Z,9.40
2023-05-22T07:33:39.032Z,9.13
2023-05-22T07:38:43.639Z,9.70
2023-05-22T07:43:46.924Z,9.10
2023-05-22T07:48:50.066Z,8.90
2023-05-22T07:53:55.049Z,8.47
2023-05-22T07:58:58.597Z,9.23
2023-05-22T08:04:02.094Z,8.80
2023-05-22T08:09:06.909Z,8.90
2023-05-22T08:14:10.394Z,8.93
2023-05-22T08:19:14.701Z,9.03
2023-05-22T08:24:19.329Z,9.57
2023-05-22T08:29:22.660Z,9.47
2023-05-22T08:34:26.579Z,9.47
2023-05-22T08:39:31.373Z,9.80
2023-05-22T08:44:34.618Z,9.23
2023-05-22T08:49:38.423Z,9.00
2023-05-22T08:54:46.694Z,9.23
2023-05-22T08:59:50.539Z,9.63
2023-05-22T09:04:53.807Z,9.33
2023-05-22T09:09:58.884Z,10.00
2023-05-22T09:15:11.011Z,9.37
2023-05-22T09:20:15.870Z,8.57
2023-05-22T09:25:21.586Z,8.50
2023-05-22T09:30:25.144Z,9.17
2023-05-22T09:35:28.869Z,8.87
2023-05-22T09:40:36.138Z,9.07
2023-05-22T09:45:40.382Z,8.87
2023-05-22T09:50:48.794Z,9.70
2023-05-22T09:55:55.471Z,8.43
2023-05-22T10:00:58.946Z,8.53
2023-05-22T10:06:03.928Z,8.73
2023-05-22T10:11:09.067Z,9.17
2023-05-22T10:16:12.708Z,8.43
2023-05-22T10:21:17.572Z,8.10
2023-05-22T10:26:23.426Z,8.30
2023-05-22T10:31:35.877Z,8.87
2023-05-22T10:36:50.178Z,7.67
2023-05-22T10:41:54.715Z,8.93
2023-05-22T10:46:57.843Z,7.70
2023-05-22T10:52:01.152Z,8.13
2023-05-22T10:57:14.984Z,8.40
2023-05-22T11:02:29.894Z,9.20
2023-05-22T11:07:41.503Z,7.93
2023-05-22T11:12:46.542Z,7.23
2023-05-22T11:17:51.319Z,7.73
2023-05-22T11:22:59.535Z,7.90
2023-05-22T11:28:06.529Z,7.90
2023-05-22T11:33:10.075Z,7.67
2023-05-22T11:38:13.524Z,6.47
2023-05-22T11:43:29.910Z,7.10
2023-05-22T11:48:33.083Z,7.07
2023-05-22T11:53:37.464Z,6.60
2023-05-22T11:58:42.139Z,7.07
2023-05-22T12:03:45.438Z,6.60
2023-05-22T12:08:48.791Z,7.33
2023-05-22T12:14:01.644Z,6.93
2023-05-22T12:19:09.318Z,6.40
2023-05-22T12:24:12.890Z,6.23
2023-05-22T12:29:17.378Z,6.80
2023-05-22T12:34:20.523Z,6.57
2023-05-22T12:39:23.768Z,7.23
2023-05-22T12:44:28.356Z,6.30
2023-05-22T12:49:31.510Z,7.47
2023-05-22T12:54:34.713Z,7.03
2023-05-22T12:59:39.332Z,6.60
2023-05-22T13:04:42.535Z,6.83
2023-05-22T13:09:45.675Z,7.50
2023-05-22T13:14:50.228Z,7.03
2023-05-22T13:19:53.763Z,7.07
2023-05-22T13:24:57.033Z,6.67
2023-05-22T13:30:01.556Z,6.83
2023-05-22T13:35:05.152Z,6.67
2023-05-22T13:40:09.824Z,7.10
2023-05-22T13:45:14.665Z,6.80
2023-05-22T13:50:17.924Z,7.47
2023-05-22T13:55:21.190Z,6.70
2023-05-22T14:00:25.811Z,6.87
2023-05-22T14:05:28.934Z,6.67
2023-05-22T14:10:32.037Z,6.00
2023-05-22T14:15:36.541Z,5.77
2023-05-22T14:20:39.812Z,6.10
2023-05-22T14:25:43.933Z,5.67
2023-05-22T14:30:48.552Z,5.50
2023-05-22T14:35:52.493Z,5.67
2023-05-22T14:40:55.586Z,5.50
2023-05-22T14:46:00.256Z,5.80
2023-05-22T14:51:04.647Z,5.23
2023-05-22T14:56:07.887Z,5.50
2023-05-22T15:01:12.389Z,5.40
2023-05-22T15:06:15.955Z,5.67
2023-05-22T15:11:19.108Z,5.37
2023-05-22T15:16:23.733Z,5.63
2023-05-22T15:21:26.941Z,5.17
2023-05-22T15:26:30.109Z,5.57
2023-05-22T15:31:34.685Z,5.37
2023-05-22T15:36:37.886Z,5.73
2023-05-22T15:41:42.019Z,5.73
2023-05-22T15:46:49.493Z,5.60
2023-05-22T15:51:52.612Z,5.63
2023-05-22T15:56:55.855Z,5.47
2023-05-22T16:02:00.423Z,4.87
2023-05-22T16:07:03.883Z,4.80
2023-05-22T16:12:07.535Z,4.83
2023-05-22T16:17:12.062Z,5.23
2023-05-22T16:22:15.239Z,4.53
2023-05-22T16:27:18.395Z,4.53
2023-05-22T16:32:22.992Z,4.77
2023-05-22T16:37:26.182Z,4.27
2023-05-22T16:42:29.322Z,4.50
2023-05-22T16:47:34.128Z,4.70
2023-05-22T16:52:37.751Z,4.83
2023-05-22T16:57:41.048Z,4.60
2023-05-22T17:02:46.280Z,4.90
2023-05-22T17:07:49.695Z,4.80
2023-05-22T17:12:52.831Z,4.67
2023-05-22T17:17:57.466Z,5.63
2023-05-22T17:23:00.777Z,10.97
2023-05-22T17:28:03.939Z,6.80
2023-05-22T17:33:08.599Z,5.80
2023-05-22T17:38:11.838Z,5.03
2023-05-22T17:43:16.639Z,5.23
2023-05-22T17:48:23.856Z,5.10
2023-05-22T17:53:32.078Z,5.07
2023-05-22T17:58:35.324Z,5.77
2023-05-22T18:03:39.978Z,5.30
2023-05-22T18:08:43.229Z,5.40
2023-05-22T18:13:46.374Z,5.20
2023-05-22T18:18:50.963Z,5.87
2023-05-22T18:23:54.331Z,5.87
2023-05-22T18:28:57.581Z,5.73
2023-05-22T18:34:02.173Z,5.17
2023-05-22T18:39:07.291Z,5.77
2023-05-22T18:44:10.653Z,5.53
2023-05-22T18:49:15.942Z,5.63
2023-05-22T18:54:19.137Z,6.07
2023-05-22T18:59:22.452Z,5.07
2023-05-22T19:04:27.640Z,6.03
2023-05-22T19:09:31.223Z,5.70
2023-05-22T19:14:34.791Z,6.63
2023-05-22T19:19:39.684Z,6.87
2023-05-22T19:24:43.018Z,6.87
2023-05-22T19:29:46.291Z,8.70
2023-05-22T19:34:50.887Z,7.43
2023-05-22T19:39:54.592Z,6.10
2023-05-22T19:44:57.840Z,6.70
2023-05-22T19:50:03.765Z,6.93
2023-05-22T19:55:09.920Z,6.50
2023-05-22T20:00:14.106Z,8.33
2023-05-22T20:05:18.782Z,6.47
2023-05-22T20:10:23.918Z,6.13
2023-05-22T20:15:27.280Z,6.87
2023-05-22T20:20:31.984Z,6.97
2023-05-22T20:25:35.244Z,7.20
2023-05-22T20:30:38.449Z,7.27
2023-05-22T20:35:43.205Z,7.10
2023-05-22T20:40:47.682Z,6.20
2023-05-22T20:45:51.352Z,7.03
2023-05-22T20:50:56.120Z,8.03
2023-05-22T20:55:59.383Z,7.03
2023-05-22T21:01:02.739Z,7.63
2023-05-22T21:06:07.876Z,7.60
2023-05-22T21:11:11.197Z,8.00
2023-05-22T21:16:14.441Z,7.17
2023-05-22T21:21:21.528Z,7.77
2023-05-22T21:26:24.749Z,8.37
2023-05-22T21:31:28.010Z,8.63
2023-05-22T21:36:32.634Z,8.47
2023-05-22T21:41:35.808Z,7.77
2023-05-22T21:46:39.068Z,9.20
2023-05-22T21:51:43.603Z,9.53
2023-05-22T21:56:46.933Z,8.33
2023-05-22T22:01:50.123Z,9.10
2023-05-22T22:06:54.740Z,9.23
2023-05-22T22:11:57.998Z,8.30
2023-05-22T22:17:01.128Z,8.57
2023-05-22T22:22:05.991Z,9.17
2023-05-22T22:27:09.145Z,9.20
2023-05-22T22:32:13.204Z,8.80
2023-05-22T22:37:18.892Z,8.47
2023-05-22T22:42:22.029Z,8.83
2023-05-22T22:47:25.963Z,7.97
2023-05-22T22:52:30.491Z,8.77
2023-05-22T22:57:33.867Z,9.97
2023-05-22T23:02:37.031Z,8.73
2023-05-22T23:07:41.579Z,8.73
2023-05-22T23:12:44.765Z,9.17
2023-05-22T23:17:50.199Z,9.93
2023-05-22T23:22:56.142Z,9.50
2023-05-22T23:27:59.262Z,8.23
2023-05-22T23:33:02.948Z,9.30
2023-05-22T23:38:07.767Z,9.40
2023-05-22T23:43:10.914Z,7.60
2023-05-22T23:48:14.044Z,8.27
2023-05-22T23:53:18.589Z,8.90
2023-05-22T23:58:21.735Z,8.37
